Time;durP1;ratioP1;P1;durP2;ratioP2;P2;SDS_P1;SDS_P2;PMS_P1;PMS_P2;Temp;Humidity;BMP_temperature;BMP_pressure;BME280_temperature;BME280_humidity;BME280_pressure;Samples;Min_cycle;Max_cycle;Signal;HPM_P1;HPM_P2
2021/08/20 00:01:03;;;;;;;5.00;4.50;;;19.70;99.90;;;;;;5071138;28;20469;-55
2021/08/20 00:03:31;;;;;;;6.30;5.53;;;19.80;99.90;;;;;;5077321;28;20437;-55
2021/08/20 00:05:59;;;;;;;5.93;5.33;;;19.70;99.90;;;;;;5078336;28;20440;-54
2021/08/20 00:08:25;;;;;;;4.80;4.30;;;19.70;99.90;;;;;;5078075;28;20433;-54
2021/08/20 00:10:52;;;;;;;5.00;4.50;;;19.70;99.90;;;;;;5078030;28;20465;-55
2021/08/20 00:13:19;;;;;;;5.27;4.77;;;19.70;99.90;;;;;;5078393;28;20788;-54
2021/08/20 00:15:45;;;;;;;4.73;4.33;;;19.70;99.90;;;;;;5078062;28;20512;-54
2021/08/20 00:18:13;;;;;;;7.77;4.50;;;19.70;99.90;;;;;;5077729;28;20482;-53
2021/08/20 00:20:41;;;;;;;6.67;4.90;;;19.70;99.90;;;;;;5077905;28;20969;-55
2021/08/20 00:23:08;;;;;;;5.27;4.77;;;19.70;99.90;;;;;;5077920;28;20481;-54
2021/08/20 00:25:34;;;;;;;5.77;5.27;;;19.60;99.90;;;;;;5077852;28;20436;-54
2021/08/20 00:28:01;;;;;;;5.70;5.10;;;19.70;99.90;;;;;;5077472;28;20499;-54
2021/08/20 00:30:28;;;;;;;5.20;4.70;;;19.70;99.90;;;;;;5059816;28;20497;-54
2021/08/20 00:32:55;;;;;;;6.57;5.30;;;19.70;99.90;;;;;;5060031;28;20468;-54
2021/08/20 00:35:21;;;;;;;7.37;6.17;;;19.60;99.90;;;;;;5078086;28;20804;-55
2021/08/20 00:37:49;;;;;;;6.60;6.00;;;19.60;99.90;;;;;;5078056;28;20444;-54
2021/08/20 00:40:18;;;;;;;7.30;6.00;;;19.60;99.90;;;;;;5077811;28;20547;-55
2021/08/20 00:42:45;;;;;;;6.63;5.97;;;19.60;99.90;;;;;;5078032;28;20499;-55
2021/08/20 00:45:12;;;;;;;8.10;5.70;;;19.60;99.90;;;;;;5077895;28;20433;-54
2021/08/20 00:47:39;;;;;;;6.53;5.50;;;19.60;99.90;;;;;;5059770;28;20464;-54
2021/08/20 00:50:07;;;;;;;6.20;5.70;;;19.60;99.90;;;;;;5077775;28;20555;-55
2021/08/20 00:52:35;;;;;;;6.87;5.70;;;19.60;99.90;;;;;;5077730;28;20482;-54
2021/08/20 00:55:05;;;;;;;5.97;5.37;;;19.60;99.90;;;;;;5059624;28;20455;-54
2021/08/20 00:57:32;;;;;;;6.17;5.57;;;19.60;99.90;;;;;;5077416;28;20528;-54
2021/08/20 00:59:59;;;;;;;5.83;5.23;;;19.60;99.90;;;;;;5105155;22;21030;-52
2021/08/20 01:02:26;;;;;;;6.33;5.80;;;19.60;99.90;;;;;;5076552;28;20555;-52
2021/08/20 01:04:53;;;;;;;6.30;5.70;;;19.60;99.90;;;;;;5058121;28;20448;-52
2021/08/20 01:07:22;;;;;;;5.10;4.60;;;19.60;99.90;;;;;;5058469;28;20961;-52
2021/08/20 01:09:48;;;;;;;5.87;5.20;;;19.60;99.90;;;;;;5076315;28;20467;-52
2021/08/20 01:12:16;;;;;;;6.40;5.23;;;19.60;99.90;;;;;;5058624;28;20698;-52
2021/08/20 01:14:43;;;;;;;5.67;5.17;;;19.50;99.90;;;;;;5055066;28;20490;-52
2021/08/20 01:17:10;;;;;;;6.10;5.50;;;19.50;99.90;;;;;;5054456;28;20464;-52
2021/08/20 01:19:39;;;;;;;5.43;4.83;;;19.50;99.90;;;;;;5055098;28;20449;-52
2021/08/20 01:22:07;;;;;;;5.90;5.30;;;19.50;99.90;;;;;;5054587;28;20469;-52
2021/08/20 01:24:39;;;;;;;6.37;5.10;;;19.50;99.90;;;;;;5055322;28;20946;-52
2021/08/20 01:27:09;;;;;;;5.10;4.60;;;19.50;99.90;;;;;;5054657;28;20460;-52
2021/08/20 01:29:36;;;;;;;5.77;4.67;;;19.40;99.90;;;;;;5054688;28;20961;-50
2021/08/20 01:32:04;;;;;;;5.80;4.63;;;19.40;99.90;;;;;;5054975;28;20449;-52
2021/08/20 01:34:31;;;;;;;5.67;5.17;;;19.40;99.90;;;;;;5072484;28;20432;-52
2021/08/20 01:36:57;;;;;;;5.30;4.80;;;19.40;99.90;;;;;;5054098;28;20547;-51
2021/08/20 01:39:24;;;;;;;6.80;5.07;;;19.40;99.90;;;;;;5072632;28;20515;-50
2021/08/20 01:41:51;;;;;;;6.80;5.33;;;19.40;99.90;;;;;;5054782;28;20998;-51
2021/08/20 01:44:19;;;;;;;5.20;4.57;;;19.40;99.90;;;;;;5054581;28;20449;-51
2021/08/20 01:46:47;;;;;;;7.80;5.30;;;19.30;99.90;;;;;;5054311;28;20456;-52
2021/08/20 01:49:14;;;;;;;7.67;5.73;;;19.30;99.90;;;;;;5054159;28;20865;-52
2021/08/20 01:51:40;;;;;;;5.67;5.00;;;19.30;99.90;;;;;;5054453;28;20476;-50
2021/08/20 01:54:07;;;;;;;5.87;5.10;;;19.30;99.90;;;;;;5054316;28;20448;-51
2021/08/20 01:56:36;;;;;;;11.80;5.00;;;19.30;99.90;;;;;;5053994;28;21116;-53
2021/08/20 01:59:12;;;;;;;6.27;4.50;;;19.30;99.90;;;;;;5054561;28;20825;-53
2021/08/20 02:01:41;;;;;;;5.90;5.30;;;19.30;99.90;;;;;;5054183;28;20455;-52
2021/08/20 02:04:08;;;;;;;4.80;4.30;;;19.30;99.90;;;;;;5072289;28;20443;-53
2021/08/20 02:06:35;;;;;;;6.63;5.67;;;19.30;99.90;;;;;;5053776;28;20961;-52
2021/08/20 02:09:04;;;;;;;5.67;4.40;;;19.30;99.90;;;;;;5054579;28;20495;-52
2021/08/20 02:11:33;;;;;;;6.27;5.43;;;19.30;99.90;;;;;;5054143;28;20491;-50
2021/08/20 02:14:00;;;;;;;9.10;6.23;;;19.30;99.90;;;;;;5054108;28;20448;-52
2021/08/20 02:16:28;;;;;;;5.87;5.20;;;19.30;99.90;;;;;;5053466;28;20460;-52
2021/08/20 02:18:56;;;;;;;5.33;4.77;;;19.30;99.90;;;;;;5072177;28;20428;-52
2021/08/20 02:21:27;;;;;;;5.23;4.70;;;19.30;99.90;;;;;;5053913;28;20518;-51
2021/08/20 02:23:55;;;;;;;5.43;4.53;;;19.30;99.90;;;;;;5053710;28;20563;-51
2021/08/20 02:26:24;;;;;;;5.03;4.30;;;19.30;99.90;;;;;;5052333;28;20718;-52
2021/08/20 02:28:51;;;;;;;5.03;4.43;;;19.30;99.90;;;;;;5053778;28;20431;-52
2021/08/20 02:31:18;;;;;;;5.00;4.50;;;19.30;99.90;;;;;;5053142;28;20564;-51
2021/08/20 02:33:45;;;;;;;5.97;4.40;;;19.30;99.90;;;;;;5053587;28;20454;-52
2021/08/20 02:36:14;;;;;;;4.57;4.17;;;19.30;99.90;;;;;;5053055;28;20491;-53
2021/08/20 02:38:41;;;;;;;5.20;4.70;;;19.30;99.90;;;;;;5053637;28;20528;-53
2021/08/20 02:41:09;;;;;;;5.83;4.43;;;19.30;99.90;;;;;;5053370;28;20508;-51
2021/08/20 02:43:42;;;;;;;5.17;4.67;;;19.20;99.90;;;;;;5053622;28;20494;-52
2021/08/20 02:46:09;;;;;;;5.77;5.00;;;19.20;99.90;;;;;;5071117;28;20427;-51
2021/08/20 02:48:35;;;;;;;7.20;5.67;;;19.20;99.90;;;;;;5053132;28;20877;-52
2021/08/20 02:51:06;;;;;;;5.80;5.17;;;19.20;99.90;;;;;;5053139;28;20512;-52
2021/08/20 02:53:34;;;;;;;6.20;4.60;;;19.20;99.90;;;;;;5053410;28;20453;-52
2021/08/20 02:56:01;;;;;;;5.73;5.13;;;19.20;99.90;;;;;;5052800;28;20573;-51
2021/08/20 02:58:43;;;;;;;4.50;4.10;;;19.30;99.90;;;;;;5053521;28;20489;-52
2021/08/20 03:01:10;;;;;;;5.67;5.07;;;19.20;99.90;;;;;;5052895;28;20476;-52
2021/08/20 03:03:37;;;;;;;5.77;4.67;;;19.20;99.90;;;;;;5052808;28;20481;-53
2021/08/20 03:06:11;;;;;;;9.90;5.17;;;19.20;99.90;;;;;;5052764;28;20452;-53
2021/08/20 03:08:40;;;;;;;6.03;5.43;;;19.20;99.90;;;;;;5052781;28;20829;-53
2021/08/20 03:11:07;;;;;;;6.27;5.10;;;19.20;99.90;;;;;;5052766;28;20468;-54
2021/08/20 03:13:36;;;;;;;8.87;5.70;;;19.20;99.90;;;;;;5052854;28;20836;-53
2021/08/20 03:16:03;;;;;;;7.07;5.70;;;19.20;99.90;;;;;;5052748;28;20445;-53
2021/08/20 03:18:31;;;;;;;5.77;5.20;;;19.20;99.90;;;;;;5052794;28;20449;-52
2021/08/20 03:21:00;;;;;;;7.37;5.97;;;19.10;99.90;;;;;;5052741;28;20494;-51
2021/08/20 03:23:35;;;;;;;7.53;5.40;;;19.40;99.90;;;;;;5052367;28;20480;-52
2021/08/20 03:26:06;;;;;;;5.77;5.20;;;19.10;99.90;;;;;;5052039;28;20606;-51
2021/08/20 03:28:34;;;;;;;8.80;5.63;;;19.10;99.90;;;;;;5052508;28;20470;-51
2021/08/20 03:31:01;;;;;;;7.20;6.00;;;19.10;99.90;;;;;;5052316;28;20504;-52
2021/08/20 03:33:27;;;;;;;6.93;5.87;;;19.10;99.90;;;;;;5052431;28;20566;-51
2021/08/20 03:36:05;;;;;;;6.20;5.17;;;19.10;99.90;;;;;;5052258;28;20526;-53
2021/08/20 03:38:31;;;;;;;9.07;6.20;;;19.10;99.90;;;;;;5070208;28;20442;-51
2021/08/20 03:40:58;;;;;;;8.80;6.60;;;19.10;99.90;;;;;;5052519;28;20468;-52
2021/08/20 03:43:31;;;;;;;7.83;6.03;;;19.10;99.90;;;;;;5052100;28;20487;-51
2021/08/20 03:46:12;;;;;;;7.30;6.30;;;19.10;99.90;;;;;;5070139;28;20428;-52
2021/08/20 03:48:42;;;;;;;7.40;6.30;;;19.10;99.90;;;;;;5052094;28;20961;-52
2021/08/20 03:51:09;;;;;;;7.60;5.83;;;19.10;99.90;;;;;;5052004;28;20473;-52
2021/08/20 03:53:38;;;;;;;6.50;5.90;;;19.10;99.90;;;;;;5052158;28;20556;-51
2021/08/20 03:56:05;;;;;;;10.30;6.60;;;19.10;99.90;;;;;;5051828;28;20932;-51
2021/08/20 03:58:42;;;;;;;6.73;5.63;;;19.10;99.90;;;;;;5070190;28;20556;-52
2021/08/20 04:01:14;;;;;;;7.20;6.50;;;19.10;99.90;;;;;;5052019;28;20500;-53
2021/08/20 04:03:43;;;;;;;8.80;6.23;;;19.10;99.90;;;;;;5052123;28;20481;-52
2021/08/20 04:06:22;;;;;;;10.33;6.87;;;19.10;99.90;;;;;;5051727;28;20468;-52
2021/08/20 04:08:49;;;;;;;8.93;6.20;;;19.10;99.90;;;;;;5052062;28;20456;-53
2021/08/20 04:11:40;;;;;;;10.10;6.63;;;19.10;99.90;;;;;;5052061;28;20469;-52
2021/08/20 04:14:16;;;;;;;9.57;6.90;;;19.10;99.90;;;;;;5052258;28;20448;-52
2021/08/20 04:16:43;;;;;;;8.70;6.83;;;19.10;99.90;;;;;;5069885;28;20469;-52
2021/08/20 04:19:10;;;;;;;7.93;6.17;;;19.10;99.90;;;;;;5051771;28;20453;-52
2021/08/20 04:21:36;;;;;;;6.50;5.90;;;19.00;99.90;;;;;;5051959;28;20480;-51
2021/08/20 04:24:06;;;;;;;6.77;6.10;;;19.00;99.90;;;;;;5052162;28;20480;-52
2021/08/20 04:26:33;;;;;;;8.30;6.90;;;19.00;99.90;;;;;;5051272;28;20969;-52
2021/08/20 04:29:16;;;;;;;9.33;6.97;;;19.00;99.90;;;;;;5051664;28;20669;-52
2021/08/20 04:31:50;;;;;;;9.03;6.53;;;19.00;99.90;;;;;;5051823;28;20531;-53
2021/08/20 04:34:24;;;;;;;9.80;7.00;;;19.00;99.90;;;;;;5051594;28;20460;-52
2021/08/20 04:37:02;;;;;;;6.93;5.93;;;19.00;99.90;;;;;;5051609;28;20522;-52
2021/08/20 04:39:49;;;;;;;8.10;6.10;;;19.10;99.90;;;;;;5051624;28;20475;-52
2021/08/20 04:42:35;;;;;;;8.50;7.70;;;19.10;99.90;;;;;;5069760;28;20427;-51
2021/08/20 04:45:22;;;;;;;6.80;6.10;;;19.00;99.90;;;;;;5070225;28;20431;-51
2021/08/20 04:48:09;;;;;;;7.53;6.40;;;19.10;99.90;;;;;;5058216;28;20772;-51
2021/08/20 04:51:02;;;;;;;7.30;5.83;;;19.00;99.90;;;;;;5049716;28;20541;-53
2021/08/20 04:53:40;;;;;;;6.80;5.83;;;19.00;99.90;;;;;;5055594;28;20471;-53
2021/08/20 04:56:19;;;;;;;6.77;6.17;;;19.00;99.90;;;;;;5055500;28;20460;-52
2021/08/20 04:58:47;;;;;;;8.47;6.53;;;19.00;99.90;;;;;;5055123;28;20539;-53
2021/08/20 05:01:16;;;;;;;7.53;6.73;;;18.90;99.90;;;;;;5073094;28;20548;-52
2021/08/20 05:03:46;;;;;;;8.10;6.87;;;18.80;99.90;;;;;;5055428;28;20559;-52
2021/08/20 05:06:13;;;;;;;7.87;7.07;;;18.80;99.90;;;;;;5073006;28;20428;-52
2021/08/20 05:08:40;;;;;;;9.17;7.90;;;18.80;99.90;;;;;;5073498;28;20535;-52
2021/08/20 05:11:09;;;;;;;11.60;8.20;;;18.80;99.90;;;;;;5073191;28;20454;-53
2021/08/20 05:13:36;;;;;;;7.90;7.20;;;18.80;99.90;;;;;;5073229;28;20439;-52
2021/08/20 05:16:02;;;;;;;8.30;7.47;;;18.70;99.90;;;;;;5072544;28;20436;-52
2021/08/20 05:18:30;;;;;;;8.23;7.40;;;18.70;99.90;;;;;;5054386;28;20540;-53
2021/08/20 05:20:57;;;;;;;10.20;7.93;;;18.70;99.90;;;;;;5072497;28;20450;-52
2021/08/20 05:23:24;;;;;;;8.50;7.70;;;18.70;99.90;;;;;;5073115;28;20476;-53
2021/08/20 05:25:50;;;;;;;9.47;7.20;;;18.60;99.90;;;;;;5072493;28;20767;-52
2021/08/20 05:28:17;;;;;;;9.07;7.43;;;18.60;99.90;;;;;;5071971;28;20443;-52
2021/08/20 05:30:43;;;;;;;8.43;7.50;;;18.70;99.90;;;;;;5080356;28;20459;-53
2021/08/20 05:33:10;;;;;;;10.73;9.10;;;18.70;99.90;;;;;;5072270;28;20963;-52
2021/08/20 05:35:40;;;;;;;8.80;7.90;;;18.70;99.90;;;;;;5072079;28;20481;-53
2021/08/20 05:38:06;;;;;;;9.33;7.50;;;18.70;99.90;;;;;;5052656;28;20464;-52
2021/08/20 05:40:33;;;;;;;10.37;9.23;;;18.70;99.90;;;;;;5071694;28;20457;-53
2021/08/20 05:43:01;;;;;;;10.70;8.70;;;18.70;99.90;;;;;;5053672;28;20472;-55
2021/08/20 05:45:28;;;;;;;8.70;7.80;;;18.70;99.90;;;;;;5071934;28;20456;-52
2021/08/20 05:47:55;;;;;;;9.50;7.87;;;18.60;99.90;;;;;;5070829;28;20437;-52
2021/08/20 05:50:22;;;;;;;9.17;7.33;;;18.70;99.90;;;;;;5071762;28;20451;-52
2021/08/20 05:52:50;;;;;;;11.67;9.70;;;18.60;99.90;;;;;;5072082;28;20443;-52
2021/08/20 05:55:16;;;;;;;13.60;9.83;;;18.70;99.90;;;;;;5072112;28;20432;-53
2021/08/20 05:57:43;;;;;;;9.37;7.90;;;18.80;99.90;;;;;;5071883;28;21017;-53
2021/08/20 06:00:11;;;;;;;11.00;8.17;;;18.80;99.90;;;;;;5071422;28;20472;-53
2021/08/20 06:02:45;;;;;;;10.90;8.33;;;18.90;99.90;;;;;;5053255;28;20456;-52
2021/08/20 06:05:17;;;;;;;13.90;8.33;;;19.00;99.90;;;;;;5053633;28;20792;-52
2021/08/20 06:07:44;;;;;;;11.90;10.10;;;19.00;99.90;;;;;;5053468;28;20452;-53
2021/08/20 06:10:12;;;;;;;11.03;9.90;;;19.10;99.90;;;;;;5071653;28;20452;-53
2021/08/20 06:12:38;;;;;;;12.20;10.30;;;19.10;99.90;;;;;;5072997;28;20463;-55
2021/08/20 06:15:06;;;;;;;10.63;9.03;;;19.20;99.90;;;;;;5072142;28;20424;-51
2021/08/20 06:17:33;;;;;;;11.80;10.17;;;19.30;99.90;;;;;;5071352;28;20437;-53
2021/08/20 06:19:59;;;;;;;12.57;11.10;;;19.30;99.90;;;;;;5071082;28;20548;-52
2021/08/20 06:22:26;;;;;;;12.80;11.27;;;19.40;99.90;;;;;;5053099;28;20918;-55
2021/08/20 06:24:53;;;;;;;12.10;10.57;;;19.40;99.90;;;;;;5071685;28;20575;-54
2021/08/20 06:27:21;;;;;;;12.47;10.67;;;19.50;99.90;;;;;;5070719;28;20823;-53
2021/08/20 06:29:48;;;;;;;12.17;10.87;;;19.50;99.90;;;;;;5070962;28;20982;-53
2021/08/20 06:32:15;;;;;;;12.27;10.20;;;19.60;99.90;;;;;;5053189;28;20506;-52
2021/08/20 06:34:42;;;;;;;13.53;11.37;;;19.70;99.90;;;;;;5071288;28;20434;-53
2021/08/20 06:37:08;;;;;;;15.10;11.90;;;19.80;99.90;;;;;;5071296;28;20440;-52
2021/08/20 06:39:35;;;;;;;14.77;11.90;;;19.80;99.90;;;;;;5071180;28;20441;-53
2021/08/20 06:42:02;;;;;;;13.67;12.37;;;19.90;99.90;;;;;;5071393;28;20771;-52
2021/08/20 06:44:30;;;;;;;17.73;12.93;;;20.00;99.90;;;;;;5071047;28;20472;-53
2021/08/20 06:46:57;;;;;;;15.27;13.87;;;20.00;99.90;;;;;;5070733;28;20446;-53
2021/08/20 06:49:23;;;;;;;16.77;15.00;;;20.10;99.90;;;;;;5071039;28;20442;-53
2021/08/20 06:51:50;;;;;;;18.00;13.87;;;20.30;99.90;;;;;;5070565;28;21116;-53
2021/08/20 06:54:16;;;;;;;15.70;13.93;;;20.50;99.90;;;;;;5070902;28;20441;-54
2021/08/20 06:56:43;;;;;;;17.97;14.23;;;20.60;99.90;;;;;;5070356;28;20426;-53
2021/08/20 06:59:10;;;;;;;18.33;16.43;;;20.80;99.90;;;;;;5070394;28;20435;-54
2021/08/20 07:01:38;;;;;;;22.33;17.37;;;20.90;99.90;;;;;;5070738;28;20466;-52
2021/08/20 07:04:05;;;;;;;17.20;15.10;;;20.90;99.90;;;;;;5070554;28;20519;-50
2021/08/20 07:06:31;;;;;;;19.57;17.50;;;20.90;99.90;;;;;;5070486;28;20440;-53
2021/08/20 07:08:58;;;;;;;18.63;16.60;;;20.90;99.90;;;;;;5070847;28;20440;-53
2021/08/20 07:11:25;;;;;;;26.03;17.13;;;20.90;99.90;;;;;;5069792;28;20465;-53
2021/08/20 07:13:52;;;;;;;19.63;17.40;;;20.80;99.90;;;;;;5070366;28;20818;-53
2021/08/20 07:16:20;;;;;;;20.90;18.60;;;20.90;99.90;;;;;;5069888;28;20439;-53
2021/08/20 07:18:48;;;;;;;19.50;17.57;;;20.90;99.90;;;;;;5070101;28;20446;-53
2021/08/20 07:21:14;;;;;;;18.40;16.60;;;20.90;99.90;;;;;;5071282;28;20793;-53
2021/08/20 07:23:41;;;;;;;20.53;17.10;;;21.00;99.90;;;;;;5070008;28;20516;-51
2021/08/20 07:26:08;;;;;;;21.03;18.93;;;21.00;99.90;;;;;;5069634;28;20515;-51
2021/08/20 07:28:35;;;;;;;17.43;15.60;;;21.10;99.90;;;;;;5069831;28;20458;-52
2021/08/20 07:31:03;;;;;;;19.43;17.63;;;21.10;99.90;;;;;;5069792;28;20454;-54
2021/08/20 07:33:30;;;;;;;17.47;15.77;;;21.20;99.90;;;;;;5069981;28;20454;-53
2021/08/20 07:36:00;;;;;;;24.00;17.53;;;21.20;99.90;;;;;;5069945;28;20445;-53
2021/08/20 07:38:27;;;;;;;19.77;17.77;;;21.20;99.90;;;;;;5070087;28;20441;-54
2021/08/20 07:40:53;;;;;;;20.33;18.13;;;21.20;99.90;;;;;;5070027;28;20556;-51
2021/08/20 07:43:20;;;;;;;20.27;18.37;;;21.10;99.90;;;;;;5069586;28;20444;-53
2021/08/20 07:45:47;;;;;;;21.10;18.87;;;21.10;99.90;;;;;;5070308;28;20444;-53
2021/08/20 07:48:14;;;;;;;20.60;18.50;;;21.10;99.90;;;;;;5069914;28;20908;-53
2021/08/20 07:50:41;;;;;;;19.33;17.43;;;21.00;99.90;;;;;;5070206;28;20454;-52
2021/08/20 07:53:09;;;;;;;16.90;15.30;;;21.00;99.90;;;;;;5069778;28;20487;-52
2021/08/20 07:55:36;;;;;;;19.03;17.33;;;21.00;99.90;;;;;;5070074;28;20432;-52
2021/08/20 07:58:03;;;;;;;15.73;14.03;;;21.00;99.90;;;;;;5069824;28;20498;-53
2021/08/20 08:00:31;;;;;;;18.80;14.47;;;20.80;99.90;;;;;;5069622;28;20553;-53
2021/08/20 08:02:58;;;;;;;12.90;11.60;;;20.70;99.90;;;;;;5070036;28;20445;-53
2021/08/20 08:05:25;;;;;;;12.37;10.33;;;20.60;99.90;;;;;;5069757;28;20486;-52
2021/08/20 08:07:52;;;;;;;10.67;9.67;;;20.50;99.90;;;;;;5069488;28;20975;-53
2021/08/20 08:10:21;;;;;;;10.30;9.23;;;20.50;99.90;;;;;;5069578;28;20457;-52
2021/08/20 08:12:48;;;;;;;11.00;8.50;;;20.20;99.90;;;;;;5070231;28;20531;-52
2021/08/20 08:15:15;;;;;;;10.97;8.30;;;20.50;99.90;;;;;;5069568;28;20456;-53
2021/08/20 08:17:42;;;;;;;11.50;8.70;;;20.50;99.90;;;;;;5069272;28;20458;-53
2021/08/20 08:20:11;;;;;;;14.40;7.47;;;20.60;99.90;;;;;;5069804;28;20462;-53
2021/08/20 08:22:38;;;;;;;12.77;8.23;;;20.50;99.90;;;;;;5069966;28;20931;-53
2021/08/20 08:25:06;;;;;;;9.13;8.23;;;20.50;99.90;;;;;;5073965;28;20481;-53
2021/08/20 08:27:46;;;;;;;8.53;7.60;;;20.50;99.90;;;;;;5073531;28;20483;-52
2021/08/20 08:30:13;;;;;;;16.90;9.07;;;20.50;99.90;;;;;;5073760;28;20477;-51
2021/08/20 08:32:39;;;;;;;8.97;7.83;;;20.50;99.90;;;;;;5073575;28;20433;-53
2021/08/20 08:35:07;;;;;;;8.70;7.63;;;20.40;99.90;;;;;;5073823;28;20430;-52
2021/08/20 08:37:34;;;;;;;9.83;8.93;;;20.40;99.90;;;;;;5073443;28;20813;-54
2021/08/20 08:40:01;;;;;;;12.57;8.80;;;20.40;99.90;;;;;;5073459;28;20454;-53
2021/08/20 08:42:27;;;;;;;13.00;9.67;;;20.30;99.90;;;;;;5073147;28;20937;-53
2021/08/20 08:44:56;;;;;;;8.87;7.70;;;20.30;99.90;;;;;;5073610;28;20480;-53
2021/08/20 08:47:23;;;;;;;11.00;8.60;;;20.30;99.90;;;;;;5072920;28;20522;-53
2021/08/20 08:49:52;;;;;;;11.20;8.40;;;20.30;99.90;;;;;;5073024;28;20826;-52
2021/08/20 08:52:18;;;;;;;9.30;8.10;;;20.30;99.90;;;;;;5073255;28;20521;-53
2021/08/20 08:54:45;;;;;;;9.10;7.73;;;20.20;99.90;;;;;;5073331;28;21024;-53
2021/08/20 08:57:12;;;;;;;12.27;9.50;;;20.30;99.90;;;;;;5072826;28;20426;-52
2021/08/20 08:59:38;;;;;;;9.60;8.67;;;20.30;99.90;;;;;;5072827;28;20546;-51
2021/08/20 09:02:21;;;;;;;11.27;10.10;;;20.30;99.90;;;;;;5072932;28;20426;-52
2021/08/20 09:04:55;;;;;;;10.60;9.50;;;20.40;99.90;;;;;;5054939;28;20986;-53
2021/08/20 09:07:23;;;;;;;10.70;9.60;;;20.50;99.90;;;;;;5072694;28;20518;-53
2021/08/20 09:10:13;;;;;;;11.30;10.23;;;20.60;99.90;;;;;;5073423;28;20515;-53
2021/08/20 09:12:42;;;;;;;15.40;10.17;;;20.60;99.90;;;;;;5073163;28;20431;-53
2021/08/20 09:15:10;;;;;;;11.13;9.93;;;20.70;99.90;;;;;;5072905;28;20798;-54
2021/08/20 09:17:38;;;;;;;10.60;9.40;;;20.80;99.90;;;;;;5072965;28;20442;-54
2021/08/20 09:20:15;;;;;;;9.43;8.43;;;20.80;99.90;;;;;;5073058;28;20458;-52
2021/08/20 09:22:42;;;;;;;9.27;8.47;;;20.90;99.90;;;;;;5073202;28;20436;-53
2021/08/20 09:25:27;;;;;;;10.33;7.60;;;20.90;99.90;;;;;;5072706;28;20500;-52
2021/08/20 09:28:09;;;;;;;10.37;7.70;;;21.00;99.90;;;;;;5072488;28;20613;-52
2021/08/20 09:30:36;;;;;;;10.30;9.30;;;21.10;99.90;;;;;;5072557;28;20560;-53
2021/08/20 09:33:10;;;;;;;8.83;7.93;;;21.20;99.90;;;;;;5072605;28;20431;-52
2021/08/20 09:35:38;;;;;;;8.97;7.10;;;21.30;99.90;;;;;;5072210;28;20759;-52
2021/08/20 09:38:10;;;;;;;9.60;8.10;;;21.50;99.90;;;;;;5072085;28;20849;-52
2021/08/20 09:40:38;;;;;;;9.00;8.10;;;21.50;99.90;;;;;;5072327;28;20494;-52
2021/08/20 09:43:18;;;;;;;9.43;7.40;;;21.50;99.90;;;;;;5072725;28;20488;-54
2021/08/20 09:46:00;;;;;;;10.50;7.40;;;21.50;99.90;;;;;;5072273;28;20480;-51
2021/08/20 09:48:49;;;;;;;9.70;7.13;;;21.50;99.90;;;;;;5072215;28;20432;-53
2021/08/20 09:51:36;;;;;;;8.67;5.87;;;21.60;99.90;;;;;;5072471;28;20545;-52
2021/08/20 09:54:04;;;;;;;7.67;4.03;;;21.80;99.90;;;;;;5072577;28;20433;-52
2021/08/20 09:56:31;;;;;;;6.73;4.53;;;21.90;99.90;;;;;;5071683;28;20452;-52
2021/08/20 09:58:59;;;;;;;5.33;3.40;;;22.10;99.90;;;;;;5072062;28;20441;-52
2021/08/20 10:01:28;;;;;;;4.70;4.20;;;22.20;99.90;;;;;;5071840;28;20472;-54
2021/08/20 10:03:57;;;;;;;4.10;3.80;;;22.30;99.90;;;;;;5053732;28;20449;-52
2021/08/20 10:06:25;;;;;;;4.47;3.60;;;22.30;99.90;;;;;;5071922;28;20533;-52
2021/08/20 10:08:53;;;;;;;4.00;3.60;;;22.40;99.90;;;;;;5072109;28;20437;-53
2021/08/20 10:11:20;;;;;;;3.87;3.47;;;22.90;99.90;;;;;;5071622;28;20465;-51
2021/08/20 10:13:47;;;;;;;3.87;3.53;;;22.50;99.60;;;;;;5072039;28;20429;-53
2021/08/20 10:16:14;;;;;;;4.57;3.47;;;22.60;99.40;;;;;;5071975;28;20437;-53
2021/08/20 10:18:42;;;;;;;4.00;3.10;;;22.60;99.20;;;;;;5053724;28;20542;-52
2021/08/20 10:21:10;;;;;;;5.70;3.87;;;22.70;99.10;;;;;;5071909;28;20461;-54
2021/08/20 10:23:37;;;;;;;5.40;4.40;;;22.80;98.90;;;;;;5072408;28;20437;-53
2021/08/20 10:26:06;;;;;;;7.40;4.30;;;22.80;98.40;;;;;;5071929;28;20482;-53
2021/08/20 10:28:34;;;;;;;11.10;5.00;;;22.80;98.30;;;;;;5071582;28;20434;-53
2021/08/20 10:31:01;;;;;;;4.03;3.73;;;22.90;98.40;;;;;;5071481;28;20458;-52
2021/08/20 10:33:32;;;;;;;5.33;4.50;;;23.00;98.40;;;;;;5071882;28;20809;-51
2021/08/20 10:36:00;;;;;;;5.50;5.00;;;23.10;98.20;;;;;;5071447;28;20525;-53
2021/08/20 10:38:34;;;;;;;6.20;5.20;;;23.10;97.90;;;;;;5071357;28;20930;-52
2021/08/20 10:41:13;;;;;;;6.10;5.50;;;23.20;97.60;;;;;;5071178;28;20458;-52
2021/08/20 10:43:57;;;;;;;6.60;5.53;;;23.30;97.40;;;;;;5053125;28;20486;-53
2021/08/20 10:47:04;;;;;;;6.27;5.40;;;23.30;96.50;;;;;;5069790;28;20849;-53
2021/08/20 10:49:44;;;;;;;6.33;5.50;;;23.30;96.60;;;;;;5066334;28;20468;-51
2021/08/20 10:52:24;;;;;;;7.27;6.23;;;23.30;96.80;;;;;;5071082;28;20500;-52
2021/08/20 10:55:32;;;;;;;9.10;6.23;;;23.30;96.10;;;;;;5070758;28;20805;-53
2021/08/20 10:58:07;;;;;;;6.77;6.07;;;23.10;96.10;;;;;;5070516;28;20832;-53
2021/08/20 11:00:36;;;;;;;6.43;5.60;;;23.00;96.50;;;;;;5070926;28;20481;-53
2021/08/20 11:03:04;;;;;;;8.97;5.37;;;22.90;96.40;;;;;;5070611;28;20439;-52
2021/08/20 11:05:51;;;;;;;6.67;6.00;;;22.80;96.40;;;;;;5070165;28;21050;-53
2021/08/20 11:08:45;;;;;;;11.03;6.57;;;22.80;96.20;;;;;;5065320;28;20914;-53
2021/08/20 11:11:50;;;;;;;6.17;5.57;;;22.80;96.30;;;;;;5070886;28;20512;-52
2021/08/20 11:14:25;;;;;;;8.73;7.20;;;22.40;95.70;;;;;;5070422;28;20531;-53
2021/08/20 11:16:52;;;;;;;7.10;5.43;;;22.90;95.80;;;;;;5069470;28;20493;-53
2021/08/20 11:19:46;;;;;;;5.20;4.30;;;22.90;95.80;;;;;;5070377;28;20486;-53
2021/08/20 11:22:17;;;;;;;6.20;5.60;;;22.90;95.60;;;;;;5070297;28;20933;-53
2021/08/20 11:25:15;;;;;;;7.60;6.17;;;22.90;95.20;;;;;;5070491;28;20478;-54
2021/08/20 11:27:58;;;;;;;6.13;5.57;;;23.00;94.50;;;;;;5070093;28;20439;-56
2021/08/20 11:30:25;;;;;;;8.20;6.30;;;22.90;93.70;;;;;;5070344;28;20878;-53
2021/08/20 11:33:07;;;;;;;6.70;5.17;;;22.90;93.70;;;;;;5069594;28;20441;-53
2021/08/20 11:35:34;;;;;;;7.90;6.07;;;23.00;93.50;;;;;;5070325;28;20426;-52
2021/08/20 11:38:00;;;;;;;7.97;6.00;;;23.00;93.30;;;;;;5070657;28;20837;-53
2021/08/20 11:40:27;;;;;;;6.23;5.63;;;23.00;93.40;;;;;;5070202;28;20461;-52
2021/08/20 11:43:10;;;;;;;11.30;6.73;;;23.10;93.50;;;;;;5070111;28;20426;-52
2021/08/20 11:45:38;;;;;;;6.17;5.33;;;23.10;93.10;;;;;;5069971;28;20847;-54
2021/08/20 11:48:07;;;;;;;7.23;6.53;;;23.20;93.40;;;;;;5070208;28;20825;-54
2021/08/20 11:50:34;;;;;;;7.30;6.03;;;23.20;93.30;;;;;;5070018;28;20473;-52
2021/08/20 11:53:02;;;;;;;6.67;6.03;;;23.20;93.30;;;;;;5051524;28;20450;-53
2021/08/20 11:55:30;;;;;;;6.67;5.87;;;23.20;93.30;;;;;;5069855;28;20435;-52
2021/08/20 11:57:56;;;;;;;7.83;6.10;;;23.10;93.50;;;;;;5069453;28;20529;-53
2021/08/20 12:00:37;;;;;;;7.50;6.80;;;23.10;93.60;;;;;;5070010;28;20545;-54
2021/08/20 12:03:09;;;;;;;6.70;6.10;;;23.00;93.60;;;;;;5069661;28;20484;-53
2021/08/20 12:05:36;;;;;;;6.97;6.37;;;23.00;93.70;;;;;;5051551;28;20469;-53
2021/08/20 12:08:14;;;;;;;9.60;7.23;;;22.90;93.70;;;;;;5069909;28;20437;-51
2021/08/20 12:10:43;;;;;;;8.30;6.70;;;22.60;93.70;;;;;;5069402;28;20483;-52
2021/08/20 12:13:11;;;;;;;7.97;7.20;;;22.70;93.90;;;;;;5070405;28;20804;-53
2021/08/20 12:15:40;;;;;;;9.57;7.07;;;22.60;94.00;;;;;;5069664;28;20428;-53
2021/08/20 12:18:21;;;;;;;7.03;6.33;;;22.40;94.20;;;;;;5069337;28;20902;-53
2021/08/20 12:32:21;;;;;;;9.13;7.83;;;22.00;94.70;;;;;;5069676;28;20443;-53
2021/08/20 12:34:56;;;;;;;10.37;8.70;;;22.00;94.90;;;;;;5069653;28;20443;-53
2021/08/20 12:37:26;;;;;;;9.87;8.87;;;22.00;95.30;;;;;;5050719;28;20455;-51
2021/08/20 12:40:04;;;;;;;10.47;8.90;;;22.10;95.00;;;;;;5069023;28;20480;-52
2021/08/20 12:42:30;;;;;;;12.80;11.60;;;22.20;95.00;;;;;;5069397;28;20850;-52
2021/08/20 12:45:08;;;;;;;10.30;9.40;;;22.40;95.10;;;;;;5069241;28;20897;-54
2021/08/20 12:47:36;;;;;;;9.87;8.87;;;22.50;95.10;;;;;;5068681;28;20527;-54
2021/08/20 12:50:07;;;;;;;10.27;9.27;;;22.70;95.20;;;;;;5069458;28;20560;-54
2021/08/20 12:52:34;;;;;;;12.93;9.93;;;22.90;95.20;;;;;;5068982;28;20433;-54
2021/08/20 12:55:25;;;;;;;12.57;11.37;;;23.00;95.00;;;;;;5068942;28;20433;-52
2021/08/20 12:58:14;;;;;;;12.70;11.40;;;23.00;94.60;;;;;;5068697;28;20519;-53
2021/08/20 13:00:42;;;;;;;11.13;9.90;;;23.00;94.70;;;;;;5083846;22;20497;-55
2021/08/20 13:03:14;;;;;;;11.53;10.53;;;22.90;94.40;;;;;;5070225;28;20483;-54
2021/08/20 13:05:52;;;;;;;12.13;10.03;;;23.00;94.30;;;;;;5070107;28;20820;-55
2021/08/20 13:08:19;;;;;;;15.47;14.03;;;23.20;94.10;;;;;;5069535;28;20931;-54